createdAt,value
2022-12-17T00:00:31.179Z,60.97
2022-12-17T00:05:56.892Z,81.00
2022-12-17T00:11:20.226Z,73.63
2022-12-17T00:16:43.754Z,70.33
2022-12-17T00:22:07.272Z,63.50
2022-12-17T00:27:30.846Z,69.77
2022-12-17T00:32:55.175Z,64.40
2022-12-17T00:38:18.983Z,57.90
2022-12-17T00:43:42.546Z,63.10
2022-12-17T00:49:06.657Z,57.65
2022-12-17T00:54:30.842Z,67.43
2022-12-17T00:59:56.228Z,66.63
2022-12-17T01:05:20.158Z,51.33
2022-12-17T01:10:44.337Z,78.22
2022-12-17T01:16:08.688Z,107.97
2022-12-17T01:21:32.540Z,82.33
2022-12-17T01:26:56.232Z,58.80
2022-12-17T01:32:20.640Z,71.27
2022-12-17T01:37:44.322Z,74.65
2022-12-17T01:43:08.476Z,72.80
2022-12-17T01:48:35.421Z,69.60
2022-12-17T01:54:07.088Z,67.22
2022-12-17T01:59:34.464Z,64.50
2022-12-17T02:04:59.575Z,78.70
2022-12-17T02:10:34.466Z,57.40
2022-12-17T02:16:17.918Z,65.93
2022-12-17T02:21:44.076Z,70.78
2022-12-17T02:27:12.310Z,60.33
2022-12-17T02:32:39.029Z,60.80
2022-12-17T02:38:09.941Z,58.00
2022-12-17T02:43:34.911Z,68.42
2022-12-17T02:48:58.892Z,72.20
2022-12-17T02:54:23.887Z,61.47
2022-12-17T02:59:48.207Z,57.35
2022-12-17T03:05:42.921Z,56.07
2022-12-17T03:10:37.628Z,53.73
2022-12-17T03:16:01.128Z,64.50
2022-12-17T03:21:25.633Z,60.33
2022-12-17T03:26:50.925Z,72.40
2022-12-17T03:32:08.436Z,57.70
2022-12-17T03:37:34.290Z,59.94
2022-12-17T03:42:58.524Z,66.57
2022-12-17T03:48:29.746Z,57.57
2022-12-17T03:53:54.139Z,60.67
2022-12-17T03:59:17.793Z,57.20
2022-12-17T04:04:42.083Z,56.55
2022-12-17T04:10:07.303Z,62.00
2022-12-17T04:15:31.544Z,59.33
2022-12-17T04:20:55.574Z,65.23
2022-12-17T04:26:06.795Z,66.73
2022-12-17T04:31:31.267Z,59.67
2022-12-17T04:36:55.212Z,61.50
2022-12-17T04:42:19.923Z,53.58
2022-12-17T04:47:44.275Z,67.22
2022-12-17T04:53:09.335Z,58.43
2022-12-17T04:58:34.590Z,61.23
2022-12-17T05:03:59.951Z,54.13
2022-12-17T05:09:24.116Z,63.93
2022-12-17T05:14:47.893Z,60.33
2022-12-17T05:20:11.871Z,52.98
2022-12-17T05:25:35.829Z,60.93
2022-12-17T05:31:00.383Z,62.63
2022-12-17T05:36:25.132Z,76.93
2022-12-17T05:41:49.465Z,62.93
2022-12-17T05:47:13.708Z,59.13
2022-12-17T05:52:38.025Z,56.10
2022-12-17T05:58:02.210Z,62.07
2022-12-17T06:03:27.722Z,58.78
2022-12-17T06:14:14.933Z,58.80
2022-12-17T06:19:39.187Z,47.73
2022-12-17T06:25:03.045Z,45.37
2022-12-17T06:30:27.355Z,51.13
2022-12-17T06:35:51.569Z,56.53
2022-12-17T06:41:17.295Z,58.33
2022-12-17T06:46:41.836Z,48.73
2022-12-17T06:52:05.875Z,60.43
2022-12-17T06:57:30.824Z,56.83
2022-12-17T07:02:54.765Z,52.10
2022-12-17T07:08:20.141Z,47.33
2022-12-17T07:13:44.448Z,52.05
2022-12-17T07:19:08.104Z,52.77
2022-12-17T07:24:31.932Z,57.17
2022-12-17T07:29:56.632Z,48.13
2022-12-17T07:35:20.545Z,62.57
2022-12-17T07:40:44.286Z,51.45
2022-12-17T07:46:08.268Z,54.42
2022-12-17T07:51:31.984Z,62.43
2022-12-17T07:56:55.528Z,66.43
2022-12-17T08:02:20.289Z,74.37
2022-12-17T08:07:46.257Z,77.67
2022-12-17T08:13:18.338Z,81.80
2022-12-17T08:18:42.340Z,103.17
2022-12-17T08:24:07.091Z,75.53
2022-12-17T08:29:31.614Z,67.67
2022-12-17T08:34:55.781Z,71.70
2022-12-17T08:40:21.396Z,62.47
2022-12-17T08:45:45.549Z,64.03
2022-12-17T08:51:09.471Z,66.40
2022-12-17T08:56:33.234Z,73.12
2022-12-17T09:01:57.484Z,65.33
2022-12-17T09:07:21.850Z,73.57
2022-12-17T09:12:46.104Z,67.53
2022-12-17T09:18:11.842Z,73.97
2022-12-17T09:23:37.840Z,65.30
2022-12-17T09:29:01.946Z,65.43
2022-12-17T09:34:26.685Z,63.10
2022-12-17T09:39:51.258Z,59.93
2022-12-17T09:45:54.388Z,66.90
2022-12-17T09:51:19.312Z,66.10
2022-12-17T09:56:47.336Z,67.63
2022-12-17T10:02:12.221Z,68.72
2022-12-17T10:07:43.790Z,67.87
2022-12-17T10:13:08.079Z,66.17
2022-12-17T10:18:34.068Z,66.40
2022-12-17T10:23:57.946Z,64.00
2022-12-17T10:29:40.116Z,55.83
2022-12-17T10:35:05.942Z,63.87
2022-12-17T10:40:45.347Z,70.40
2022-12-17T10:46:17.919Z,60.27
2022-12-17T10:51:49.047Z,60.63
2022-12-17T10:57:16.290Z,58.13
2022-12-17T11:02:47.289Z,76.77
2022-12-17T11:08:11.967Z,63.83
2022-12-17T11:13:53.603Z,62.78
2022-12-17T11:19:31.485Z,64.47
2022-12-17T11:25:24.799Z,71.87
2022-12-17T11:30:49.887Z,60.37
2022-12-17T11:36:38.991Z,70.07
2022-12-17T11:42:16.157Z,63.00
2022-12-17T11:47:59.072Z,64.27
2022-12-17T11:53:43.606Z,62.80
2022-12-17T11:59:14.780Z,53.85
2022-12-17T12:04:58.383Z,58.57
2022-12-17T12:10:27.139Z,60.57
2022-12-17T12:16:29.466Z,51.07
2022-12-17T12:22:01.444Z,64.70
2022-12-17T12:27:51.829Z,47.03
2022-12-17T12:33:28.731Z,44.70
2022-12-17T12:38:58.939Z,44.07
2022-12-17T12:44:27.876Z,38.67
2022-12-17T12:50:11.099Z,40.13
2022-12-17T12:55:35.177Z,38.40
2022-12-17T13:01:12.165Z,42.67
2022-12-17T13:06:49.349Z,46.50
2022-12-17T13:12:18.601Z,43.83
2022-12-17T13:17:36.507Z,62.35
2022-12-17T13:22:53.174Z,70.23
2022-12-17T13:27:59.746Z,43.00
2022-12-17T13:33:41.135Z,45.20
2022-12-17T13:39:15.910Z,40.40
2022-12-17T13:44:33.298Z,39.63
2022-12-17T13:54:46.050Z,39.13
2022-12-17T13:59:56.936Z,40.23
2022-12-17T14:05:08.154Z,49.70
2022-12-17T14:10:22.209Z,57.00
2022-12-17T14:15:33.529Z,41.77
2022-12-17T14:20:41.439Z,50.17
2022-12-17T14:25:49.187Z,41.83
2022-12-17T14:36:23.919Z,49.30
2022-12-17T14:41:52.505Z,46.30
2022-12-17T14:47:23.612Z,44.83
2022-12-17T14:52:49.501Z,39.50
2022-12-17T14:58:14.978Z,46.10
2022-12-17T15:03:30.681Z,48.47
2022-12-17T15:08:44.601Z,39.78
2022-12-17T15:13:56.041Z,49.55
2022-12-17T15:19:01.435Z,42.20
2022-12-17T15:24:15.358Z,36.77
2022-12-17T15:29:22.402Z,36.07
2022-12-17T15:34:30.290Z,34.43
2022-12-17T15:39:37.190Z,32.37
2022-12-17T15:44:45.841Z,31.53
2022-12-17T15:49:52.280Z,33.17
2022-12-17T15:54:59.568Z,31.43
2022-12-17T16:00:07.667Z,88.07
2022-12-17T16:05:14.386Z,57.13
2022-12-17T16:10:21.472Z,35.30
2022-12-17T16:15:28.432Z,33.20
2022-12-17T16:20:35.361Z,45.70
2022-12-17T16:25:42.068Z,54.73
2022-12-17T16:31:05.775Z,44.67
2022-12-17T16:36:17.107Z,48.65
2022-12-17T16:41:23.549Z,43.97
2022-12-17T16:46:36.424Z,53.90
2022-12-17T16:51:44.614Z,54.70
2022-12-17T16:56:51.940Z,51.30
2022-12-17T17:01:58.421Z,56.07
2022-12-17T17:07:04.903Z,45.67
2022-12-17T17:12:13.721Z,40.67
2022-12-17T17:17:53.940Z,43.05
2022-12-17T17:22:29.483Z,37.40
2022-12-17T17:27:35.990Z,36.55
2022-12-17T17:32:42.443Z,39.23
2022-12-17T17:37:50.046Z,33.73
2022-12-17T17:42:56.794Z,36.48
2022-12-17T17:53:09.234Z,33.20
2022-12-17T17:58:17.533Z,36.60
2022-12-17T18:03:24.147Z,34.03
2022-12-17T18:08:32.739Z,39.03
2022-12-17T18:13:58.124Z,34.63
2022-12-17T18:19:08.625Z,45.53
2022-12-17T18:24:24.385Z,38.33
2022-12-17T18:34:39.213Z,36.77
2022-12-17T18:39:46.143Z,46.80
2022-12-17T18:44:54.129Z,44.20
2022-12-17T18:50:01.182Z,34.57
2022-12-17T18:55:08.809Z,32.33
2022-12-17T19:00:16.257Z,38.40
2022-12-17T19:05:22.751Z,50.97
2022-12-17T19:10:29.466Z,38.75
2022-12-17T19:15:38.282Z,46.37
2022-12-17T19:20:45.590Z,32.93
2022-12-17T19:25:55.179Z,37.87
2022-12-17T19:31:02.959Z,34.40
2022-12-17T19:36:25.227Z,38.43
2022-12-17T19:41:33.960Z,34.27
2022-12-17T19:46:42.505Z,34.17
2022-12-17T19:51:50.242Z,33.37
2022-12-17T19:57:08.484Z,51.83
2022-12-17T20:02:19.289Z,33.20
2022-12-17T20:07:26.153Z,30.05
2022-12-17T20:12:34.031Z,31.40
2022-12-17T20:17:41.086Z,29.67
2022-12-17T20:22:47.246Z,32.87
2022-12-17T20:27:55.278Z,32.97
2022-12-17T20:33:03.008Z,35.37
2022-12-17T20:38:10.340Z,32.13
2022-12-17T20:43:17.537Z,31.10
2022-12-17T20:48:25.018Z,30.10
2022-12-17T20:53:32.404Z,30.44
2022-12-17T20:58:41.306Z,29.13
2022-12-17T21:03:49.996Z,29.43
2022-12-17T21:08:58.180Z,27.47
2022-12-17T21:14:14.509Z,29.17
2022-12-17T21:19:22.085Z,22.30
2022-12-17T21:24:29.988Z,28.38
2022-12-17T21:29:36.310Z,28.53
2022-12-17T21:34:42.853Z,29.95
2022-12-17T21:39:52.822Z,29.87
2022-12-17T21:44:58.226Z,26.40
2022-12-17T21:50:06.291Z,29.97
2022-12-17T22:00:19.094Z,21.10
2022-12-17T22:10:38.153Z,25.70
2022-12-17T22:15:48.303Z,26.68
2022-12-17T22:21:01.302Z,24.97
2022-12-17T22:26:12.679Z,26.27
2022-12-17T22:31:39.060Z,25.02
2022-12-17T22:39:42.919Z,22.65
2022-12-17T22:44:46.801Z,24.82
2022-12-17T22:47:23.331Z,24.77
2022-12-17T22:52:30.691Z,25.60
2022-12-17T22:57:38.604Z,26.35
2022-12-17T23:02:45.154Z,26.70
2022-12-17T23:07:54.484Z,24.33
2022-12-17T23:13:01.571Z,22.80
2022-12-17T23:18:10.026Z,23.27
2022-12-17T23:23:16.624Z,25.00
2022-12-17T23:28:23.724Z,24.50
2022-12-17T23:33:30.440Z,22.87
2022-12-17T23:38:37.473Z,23.70
2022-12-17T23:43:44.076Z,23.13
2022-12-17T23:48:51.878Z,22.00
2022-12-17T23:54:00.294Z,21.63
2022-12-17T23:59:06.923Z,21.70
